Time;durP1;ratioP1;P1;durP2;ratioP2;P2;SDS_P1;SDS_P2;PMS_P1;PMS_P2;Temp;Humidity;BMP_temperature;BMP_pressure;BME280_temperature;BME280_humidity;BME280_pressure;Samples;Min_cycle;Max_cycle;Signal;HPM_P1;HPM_P2
2022/06/25 00:01:45;;;;;;;;;;;;;;;;;;2209977;59;1180;-65
2022/06/25 00:07:10;;;;;;;;;;;;;;;;;;2209182;67;1246;-65
2022/06/25 00:09:44;;;;;;;;;;;;;;;;;;2209382;67;1184;-62
2022/06/25 00:12:36;;;;;;;;;;;;;;;;;;2209813;59;1185;-64
2022/06/25 00:15:10;;;;;;;;;;;;;;;;;;2210017;67;1109;-65
2022/06/25 00:17:43;;;;;;;;;;;;;;;;;;2209977;67;1241;-63
2022/06/25 00:20:16;;;;;;;;;;;;;;;;;;2210147;67;1259;-64
2022/06/25 00:22:52;;;;;;;;;;;;;;;;;;2210190;67;1990;-63
2022/06/25 00:25:25;;;;;;;;;;;;;;;;;;2210283;67;1245;-63
2022/06/25 00:27:59;;;;;;;;;;;;;;;;;;2210059;59;1228;-64
2022/06/25 00:30:32;;;;;;;;;;;;;;;;;;2210233;59;1939;-65
2022/06/25 00:33:05;;;;;;;;;;;;;;;;;;2209366;67;1188;-64
2022/06/25 00:35:39;;;;;;;;;;;;;;;;;;2210701;67;1215;-64
2022/06/25 00:38:14;;;;;;;;;;;;;;;;;;2209852;67;1191;-64
2022/06/25 00:40:48;;;;;;;;;;;;;;;;;;2209325;67;1187;-63
2022/06/25 00:43:21;;;;;;;;;;;;;;;;;;2210208;67;1939;-64
2022/06/25 00:45:54;;;;;;;;;;;;;;;;;;2209935;67;1230;-63
2022/06/25 00:48:28;;;;;;;;;;;;;;;;;;2209629;67;1258;-63
2022/06/25 00:51:01;;;;;;;;;;;;;;;;;;2209745;67;1245;-65
2022/06/25 00:53:37;;;;;;;;;;;;;;;;;;2209941;67;1183;-65
2022/06/25 00:56:11;;;;;;;;;;;;;;;;;;2209874;67;1877;-65
2022/06/25 00:58:45;;;;;;;;;;;;;;;;;;2209467;60;1305;-64
2022/06/25 01:01:19;;;;;;;;;;;;;;;;;;2209509;67;1228;-64
2022/06/25 01:03:52;;;;;;;;;;;;;;;;;;2209591;59;1992;-64
2022/06/25 01:06:28;;;;;;;;;;;;;;;;;;2209831;67;1260;-64
2022/06/25 01:09:04;;;;;;;;;;;;;;;;;;2209703;67;1266;-65
2022/06/25 01:11:37;;;;;;;;;;;;;;;;;;2209537;59;1396;-64
2022/06/25 01:14:11;;;;;;;;;;;;;;;;;;2209691;67;1248;-64
2022/06/25 01:16:44;;;;;;;;;;;;;;;;;;2209645;67;1176;-65
2022/06/25 01:19:18;;;;;;;;;;;;;;;;;;2209603;67;1180;-64
2022/06/25 01:21:51;;;;;;;;;;;;;;;;;;2209806;67;1290;-64
2022/06/25 01:24:27;;;;;;;;;;;;;;;;;;2210450;59;1932;-62
2022/06/25 01:27:00;;;;;;;;;;;;;;;;;;2209481;59;1238;-60
2022/06/25 01:29:33;;;;;;;;;;;;;;;;;;2209477;59;1513;-62
2022/06/25 01:32:07;;;;;;;;;;;;;;;;;;2209359;59;1929;-62
2022/06/25 01:34:40;;;;;;;;;;;;;;;;;;2209255;67;1233;-64
2022/06/25 01:37:13;;;;;;;;;;;;;;;;;;2209468;67;1258;-64
2022/06/25 01:39:49;;;;;;;;;;;;;;;;;;2209535;67;1247;-64
2022/06/25 01:45:08;;;;;;;;;;;;;;;;;;2209530;67;1933;-63
2022/06/25 01:47:41;;;;;;;;;;;;;;;;;;2209082;67;1184;-65
2022/06/25 01:50:15;;;;;;;;;;;;;;;;;;2209479;67;1180;-64
2022/06/25 01:52:48;;;;;;;;;;;;;;;;;;2209763;67;1296;-61
2022/06/25 01:55:24;;;;;;;;;;;;;;;;;;2209701;67;1206;-62
2022/06/25 01:57:57;;;;;;;;;;;;;;;;;;2209115;67;1309;-64
2022/06/25 02:00:31;;;;;;;;;;;;;;;;;;2209318;67;1216;-65
2022/06/25 02:03:04;;;;;;;;;;;;;;;;;;2209334;59;1925;-65
2022/06/25 02:08:28;;;;;;;;;;;;;;;;;;2209481;67;1283;-63
2022/06/25 02:11:06;;;;;;;;;;;;;;;;;;2208914;59;1375;-64
2022/06/25 02:13:39;;;;;;;;;;;;;;;;;;2210038;67;1112;-65
2022/06/25 02:16:13;;;;;;;;;;;;;;;;;;2210027;67;1235;-65
2022/06/25 02:18:46;;;;;;;;;;;;;;;;;;2210194;67;1264;-65
2022/06/25 02:21:19;;;;;;;;;;;;;;;;;;2209928;67;1084;-64
2022/06/25 02:23:52;;;;;;;;;;;;;;;;;;2210057;67;1932;-65
2022/06/25 02:26:28;;;;;;;;;;;;;;;;;;2209929;59;1234;-65
2022/06/25 02:29:02;;;;;;;;;;;;;;;;;;2210305;59;1287;-65
2022/06/25 02:31:35;;;;;;;;;;;;;;;;;;2210571;59;2035;-64
2022/06/25 02:34:09;;;;;;;;;;;;;;;;;;2210217;67;1171;-63
2022/06/25 02:36:42;;;;;;;;;;;;;;;;;;2209608;67;1274;-65
2022/06/25 02:39:15;;;;;;;;;;;;;;;;;;2210080;67;1246;-64
2022/06/25 02:41:51;;;;;;;;;;;;;;;;;;2210276;59;2051;-65
2022/06/25 02:44:24;;;;;;;;;;;;;;;;;;2210384;67;1977;-64
2022/06/25 02:46:57;;;;;;;;;;;;;;;;;;2210287;67;1249;-64
2022/06/25 02:49:30;;;;;;;;;;;;;;;;;;2210023;60;1210;-64
2022/06/25 02:52:03;;;;;;;;;;;;;;;;;;2210838;67;1093;-64
2022/06/25 02:54:37;;;;;;;;;;;;;;;;;;2209928;59;1216;-64
2022/06/25 03:00:01;;;;;;;;;;;;;;;;;;2209428;67;1287;-64
2022/06/25 03:02:35;;;;;;;;;;;;;;;;;;2210633;67;1102;-63
2022/06/25 03:05:08;;;;;;;;;;;;;;;;;;2210076;59;2322;-64
2022/06/25 03:07:42;;;;;;;;;;;;;;;;;;2208899;59;1509;-65
2022/06/25 03:10:15;;;;;;;;;;;;;;;;;;2209893;67;1282;-64
2022/06/25 03:12:51;;;;;;;;;;;;;;;;;;2209527;59;1691;-65
2022/06/25 03:15:24;;;;;;;;;;;;;;;;;;2210578;67;1070;-65
2022/06/25 03:17:57;;;;;;;;;;;;;;;;;;2209342;59;1339;-65
2022/06/25 03:20:30;;;;;;;;;;;;;;;;;;2209710;59;1259;-65
2022/06/25 03:23:04;;;;;;;;;;;;;;;;;;2209694;67;1282;-63
2022/06/25 03:25:37;;;;;;;;;;;;;;;;;;2209805;67;1935;-64
2022/06/25 03:28:13;;;;;;;;;;;;;;;;;;2209735;59;1286;-65
2022/06/25 03:30:46;;;;;;;;;;;;;;;;;;2209996;59;2047;-65
2022/06/25 03:33:19;;;;;;;;;;;;;;;;;;2209759;67;1242;-64
2022/06/25 03:35:52;;;;;;;;;;;;;;;;;;2209800;67;1195;-64
2022/06/25 03:38:25;;;;;;;;;;;;;;;;;;2209777;59;1294;-64
2022/06/25 03:43:47;;;;;;;;;;;;;;;;;;2209174;67;1946;-65
2022/06/25 03:46:20;;;;;;;;;;;;;;;;;;2209749;67;1192;-63
2022/06/25 03:48:53;;;;;;;;;;;;;;;;;;2209938;67;1258;-65
2022/06/25 03:51:26;;;;;;;;;;;;;;;;;;2210584;67;1315;-63
2022/06/25 03:54:00;;;;;;;;;;;;;;;;;;2209982;60;1233;-65
2022/06/25 03:56:33;;;;;;;;;;;;;;;;;;2210150;67;1112;-65
2022/06/25 03:59:09;;;;;;;;;;;;;;;;;;2209009;67;1186;-63
2022/06/25 04:01:42;;;;;;;;;;;;;;;;;;2209162;59;1201;-66
2022/06/25 04:04:16;;;;;;;;;;;;;;;;;;2209421;67;1933;-64
2022/06/25 04:06:49;;;;;;;;;;;;;;;;;;2209414;67;1313;-65
2022/06/25 04:09:22;;;;;;;;;;;;;;;;;;2209144;67;1284;-64
2022/06/25 04:11:56;;;;;;;;;;;;;;;;;;2209170;59;2021;-65
2022/06/25 04:14:32;;;;;;;;;;;;;;;;;;2209667;67;1334;-64
2022/06/25 04:17:05;;;;;;;;;;;;;;;;;;2209247;67;1333;-64
2022/06/25 04:19:42;;;;;;;;;;;;;;;;;;2209627;67;1092;-65
2022/06/25 04:22:15;;;;;;;;;;;;;;;;;;2209865;59;1231;-64
2022/06/25 04:24:48;;;;;;;;;;;;;;;;;;2209580;67;1944;-64
2022/06/25 04:30:11;;;;;;;;;;;;;;;;;;2199791;67;1152;-65
2022/06/25 04:32:44;;;;;;;;;;;;;;;;;;2209082;67;1210;-64
2022/06/25 04:35:17;;;;;;;;;;;;;;;;;;2210288;67;1282;-65
2022/06/25 04:37:50;;;;;;;;;;;;;;;;;;2209910;67;1282;-64
2022/06/25 04:40:23;;;;;;;;;;;;;;;;;;2209908;67;1193;-63
2022/06/25 04:42:56;;;;;;;;;;;;;;;;;;2209893;59;2329;-63
2022/06/25 04:45:32;;;;;;;;;;;;;;;;;;2209860;67;1932;-62
2022/06/25 04:48:06;;;;;;;;;;;;;;;;;;2209683;67;1236;-64
2022/06/25 04:50:39;;;;;;;;;;;;;;;;;;2210500;67;1133;-64
2022/06/25 04:53:12;;;;;;;;;;;;;;;;;;2210463;67;1180;-65
2022/06/25 04:55:45;;;;;;;;;;;;;;;;;;2210289;67;1282;-61
2022/06/25 04:58:19;;;;;;;;;;;;;;;;;;2209491;67;1397;-64
2022/06/25 05:00:55;;;;;;;;;;;;;;;;;;2209677;67;1172;-65
2022/06/25 05:03:28;;;;;;;;;;;;;;;;;;2209752;67;1439;-63
2022/06/25 05:06:03;;;;;;;;;;;;;;;;;;2209502;67;1979;-65
2022/06/25 05:08:36;;;;;;;;;;;;;;;;;;2209523;67;1255;-65
2022/06/25 05:11:09;;;;;;;;;;;;;;;;;;2208609;59;1343;-65
2022/06/25 05:13:43;;;;;;;;;;;;;;;;;;2208856;67;1169;-64
2022/06/25 05:16:19;;;;;;;;;;;;;;;;;;2209779;67;1183;-65
2022/06/25 05:18:52;;;;;;;;;;;;;;;;;;2209127;60;1280;-63
2022/06/25 05:21:26;;;;;;;;;;;;;;;;;;2209497;67;1152;-64
2022/06/25 05:23:59;;;;;;;;;;;;;;;;;;2209691;67;1244;-65
2022/06/25 05:26:32;;;;;;;;;;;;;;;;;;2209886;59;2003;-65
2022/06/25 05:29:05;;;;;;;;;;;;;;;;;;2209869;59;1284;-63
2022/06/25 05:31:43;;;;;;;;;;;;;;;;;;2210863;59;1918;-65
2022/06/25 05:34:16;;;;;;;;;;;;;;;;;;2205351;67;1277;-63
2022/06/25 05:36:49;;;;;;;;;;;;;;;;;;2209819;67;1257;-63
2022/06/25 05:39:22;;;;;;;;;;;;;;;;;;2209794;67;1140;-64
2022/06/25 05:41:56;;;;;;;;;;;;;;;;;;2209779;59;2147;-64
2022/06/25 05:44:29;;;;;;;;;;;;;;;;;;2210351;67;1921;-64
2022/06/25 05:47:05;;;;;;;;;;;;;;;;;;2211034;59;1314;-65
2022/06/25 05:49:38;;;;;;;;;;;;;;;;;;2210992;67;1063;-64
2022/06/25 05:52:11;;;;;;;;;;;;;;;;;;2211213;67;1182;-63
2022/06/25 05:54:45;;;;;;;;;;;;;;;;;;2209760;67;1152;-63
2022/06/25 05:57:19;;;;;;;;;;;;;;;;;;2210000;59;1278;-64
2022/06/25 05:59:52;;;;;;;;;;;;;;;;;;2210115;67;1254;-64
2022/06/25 06:02:28;;;;;;;;;;;;;;;;;;2210099;59;1281;-64
2022/06/25 06:05:02;;;;;;;;;;;;;;;;;;2209480;67;1925;-62
2022/06/25 06:07:36;;;;;;;;;;;;;;;;;;2209661;67;1308;-63
2022/06/25 06:10:09;;;;;;;;;;;;;;;;;;2208976;59;1172;-65
2022/06/25 06:12:42;;;;;;;;;;;;;;;;;;2209325;59;1443;-63
2022/06/25 06:15:16;;;;;;;;;;;;;;;;;;2209544;67;1249;-59
2022/06/25 06:17:51;;;;;;;;;;;;;;;;;;2209323;67;1261;-62
2022/06/25 06:20:25;;;;;;;;;;;;;;;;;;2209424;67;1212;-62
2022/06/25 06:22:58;;;;;;;;;;;;;;;;;;2209944;67;1306;-62
2022/06/25 06:25:31;;;;;;;;;;;;;;;;;;2209523;67;1971;-63
2022/06/25 06:28:04;;;;;;;;;;;;;;;;;;2209559;59;1251;-61
2022/06/25 06:30:37;;;;;;;;;;;;;;;;;;2209169;59;2061;-60
2022/06/25 06:33:13;;;;;;;;;;;;;;;;;;2209289;67;1171;-62
2022/06/25 06:35:46;;;;;;;;;;;;;;;;;;2209019;67;1160;-63
2022/06/25 06:38:20;;;;;;;;;;;;;;;;;;2209819;59;1250;-62
2022/06/25 06:40:53;;;;;;;;;;;;;;;;;;2209561;59;2062;-63
2022/06/25 06:43:26;;;;;;;;;;;;;;;;;;2209686;67;1145;-62
2022/06/25 06:45:59;;;;;;;;;;;;;;;;;;2210050;67;1940;-63
2022/06/25 06:48:35;;;;;;;;;;;;;;;;;;2209173;67;1240;-60
2022/06/25 06:51:08;;;;;;;;;;;;;;;;;;2209626;67;1213;-62
2022/06/25 06:53:42;;;;;;;;;;;;;;;;;;2209470;67;1247;-64
2022/06/25 06:56:15;;;;;;;;;;;;;;;;;;2210031;67;1276;-62
2022/06/25 06:58:48;;;;;;;;;;;;;;;;;;2209459;59;1250;-60
2022/06/25 07:01:22;;;;;;;;;;;;;;;;;;2204840;67;1227;-62
2022/06/25 07:03:58;;;;;;;;;;;;;;;;;;2209856;67;1223;-60
2022/06/25 07:06:31;;;;;;;;;;;;;;;;;;2210198;67;1929;-61
2022/06/25 07:09:04;;;;;;;;;;;;;;;;;;2210047;59;1298;-62
2022/06/25 07:11:38;;;;;;;;;;;;;;;;;;2209703;59;1230;-63
2022/06/25 07:14:13;;;;;;;;;;;;;;;;;;2210371;59;1206;-64
2022/06/25 07:16:46;;;;;;;;;;;;;;;;;;2209744;67;1215;-64
2022/06/25 07:19:22;;;;;;;;;;;;;;;;;;2209846;67;1180;-64
2022/06/25 07:21:57;;;;;;;;;;;;;;;;;;2209854;67;1286;-61
2022/06/25 07:24:30;;;;;;;;;;;;;;;;;;2210740;67;1056;-65
2022/06/25 07:27:03;;;;;;;;;;;;;;;;;;2209514;59;1953;-63
2022/06/25 07:29:36;;;;;;;;;;;;;;;;;;2209842;67;2077;-63
2022/06/25 07:32:10;;;;;;;;;;;;;;;;;;2209803;59;2066;-64
2022/06/25 07:34:46;;;;;;;;;;;;;;;;;;2209881;60;1065;-65
2022/06/25 07:37:19;;;;;;;;;;;;;;;;;;2210100;67;1285;-63
2022/06/25 07:39:52;;;;;;;;;;;;;;;;;;2209995;60;1125;-63
2022/06/25 07:42:25;;;;;;;;;;;;;;;;;;2210150;59;2005;-63
2022/06/25 07:44:59;;;;;;;;;;;;;;;;;;2209508;67;1311;-65
2022/06/25 07:47:37;;;;;;;;;;;;;;;;;;2209756;67;2010;-64
2022/06/25 07:53:02;;;;;;;;;;;;;;;;;;2209868;67;1163;-64
2022/06/25 07:55:35;;;;;;;;;;;;;;;;;;2209805;67;1203;-64
2022/06/25 07:58:08;;;;;;;;;;;;;;;;;;2210497;67;1325;-64
2022/06/25 08:00:41;;;;;;;;;;;;;;;;;;2209240;67;1193;-65
2022/06/25 08:03:15;;;;;;;;;;;;;;;;;;2209808;59;1220;-65
2022/06/25 08:05:51;;;;;;;;;;;;;;;;;;2210088;67;1928;-65
2022/06/25 08:08:24;;;;;;;;;;;;;;;;;;2210069;67;1235;-65
2022/06/25 08:10:57;;;;;;;;;;;;;;;;;;2209315;59;1864;-64
2022/06/25 08:13:30;;;;;;;;;;;;;;;;;;2209594;67;1061;-65
2022/06/25 08:16:04;;;;;;;;;;;;;;;;;;2209862;67;1097;-64
2022/06/25 08:18:38;;;;;;;;;;;;;;;;;;2209580;67;1223;-65
2022/06/25 08:21:14;;;;;;;;;;;;;;;;;;2209874;67;1163;-65
2022/06/25 09:33:12;;;;;;;;;;;;;;;;;;2311165;53;1917;-66
2022/06/25 09:35:45;;;;;;;;;;;;;;;;;;2204442;59;2215;-66
2022/06/25 09:38:19;;;;;;;;;;;;;;;;;;2204638;59;1169;-66
2022/06/25 09:40:53;;;;;;;;;;;;;;;;;;2204109;67;2081;-66
2022/06/25 09:43:29;;;;;;;;;;;;;;;;;;2203116;59;1231;-64
2022/06/25 09:46:05;;;;;;;;;;;;;;;;;;2203383;67;1923;-66
2022/06/25 09:48:43;;;;;;;;;;;;;;;;;;2202645;59;1117;-65
2022/06/25 09:51:18;;;;;;;;;;;;;;;;;;2203332;59;1183;-65
2022/06/25 09:53:53;;;;;;;;;;;;;;;;;;2202786;67;1297;-66
2022/06/25 09:56:27;;;;;;;;;;;;;;;;;;2202874;67;1329;-67
2022/06/25 09:59:01;;;;;;;;;;;;;;;;;;2203637;67;1236;-67
2022/06/25 10:01:35;;;;;;;;;;;;;;;;;;2202378;67;1035;-66
2022/06/25 10:04:11;;;;;;;;;;;;;;;;;;2203645;67;1252;-66
2022/06/25 10:06:44;;;;;;;;;;;;;;;;;;2203109;59;1933;-65
2022/06/25 10:09:18;;;;;;;;;;;;;;;;;;2202897;59;1236;-66
2022/06/25 10:11:52;;;;;;;;;;;;;;;;;;2202760;59;1408;-65
2022/06/25 10:14:26;;;;;;;;;;;;;;;;;;2202610;67;1263;-66
2022/06/25 10:17:00;;;;;;;;;;;;;;;;;;2202345;67;1267;-66
2022/06/25 10:19:37;;;;;;;;;;;;;;;;;;2202434;67;1139;-66
2022/06/25 10:22:10;;;;;;;;;;;;;;;;;;2202481;67;1548;-66
2022/06/25 10:24:44;;;;;;;;;;;;;;;;;;2202462;67;1140;-65
2022/06/25 10:27:17;;;;;;;;;;;;;;;;;;2203146;67;1977;-66
2022/06/25 10:29:54;;;;;;;;;;;;;;;;;;2202709;59;1590;-66
2022/06/25 10:32:28;;;;;;;;;;;;;;;;;;2202204;59;1981;-65
2022/06/25 10:35:04;;;;;;;;;;;;;;;;;;2202415;67;1227;-67
2022/06/25 10:37:52;;;;;;;;;;;;;;;;;;2202616;67;1153;-66
2022/06/25 10:40:26;;;;;;;;;;;;;;;;;;2202734;67;1185;-66
2022/06/25 10:43:00;;;;;;;;;;;;;;;;;;2203020;59;2309;-66
2022/06/25 10:45:57;;;;;;;;;;;;;;;;;;2202539;59;1120;-66
2022/06/25 10:48:32;;;;;;;;;;;;;;;;;;2202617;67;1178;-66
2022/06/25 10:51:08;;;;;;;;;;;;;;;;;;2202824;67;1072;-66
2022/06/25 10:53:43;;;;;;;;;;;;;;;;;;2203781;59;1224;-67
2022/06/25 10:56:17;;;;;;;;;;;;;;;;;;2203044;67;1086;-66
2022/06/25 10:58:51;;;;;;;;;;;;;;;;;;2202441;67;1283;-65
2022/06/25 11:01:32;;;;;;;;;;;;;;;;;;2204388;67;1197;-65
2022/06/25 11:04:10;;;;;;;;;;;;;;;;;;2202658;67;1201;-67
2022/06/25 11:06:46;;;;;;;;;;;;;;;;;;2203445;67;2020;-66
2022/06/25 11:09:19;;;;;;;;;;;;;;;;;;2201681;59;1231;-65
2022/06/25 11:11:54;;;;;;;;;;;;;;;;;;2203438;59;1399;-67
2022/06/25 11:14:27;;;;;;;;;;;;;;;;;;2202169;59;1200;-67
2022/06/25 11:17:08;;;;;;;;;;;;;;;;;;2203240;67;1954;-66
2022/06/25 11:19:43;;;;;;;;;;;;;;;;;;2202766;67;1208;-65
2022/06/25 11:22:20;;;;;;;;;;;;;;;;;;2203183;67;1274;-66
2022/06/25 11:30:30;;;;;;;;;;;;;;;;;;2202538;59;1932;-67
2022/06/25 11:33:03;;;;;;;;;;;;;;;;;;2203008;59;1220;-66
2022/06/25 11:35:40;;;;;;;;;;;;;;;;;;2202708;67;1183;-65
2022/06/25 11:38:21;;;;;;;;;;;;;;;;;;2202641;67;1131;-66
2022/06/25 11:40:54;;;;;;;;;;;;;;;;;;2202958;59;2096;-66
2022/06/25 11:43:29;;;;;;;;;;;;;;;;;;2202559;67;1238;-64
2022/06/25 11:46:03;;;;;;;;;;;;;;;;;;2202635;67;1224;-66
2022/06/25 11:48:36;;;;;;;;;;;;;;;;;;2202140;67;1938;-66
2022/06/25 11:51:10;;;;;;;;;;;;;;;;;;2204851;67;1127;-66
2022/06/25 11:53:46;;;;;;;;;;;;;;;;;;2203631;67;1250;-66
2022/06/25 11:56:19;;;;;;;;;;;;;;;;;;2204653;67;1194;-65
2022/06/25 11:58:52;;;;;;;;;;;;;;;;;;2205232;67;1278;-67
2022/06/25 12:01:29;;;;;;;;;;;;;;;;;;2201923;67;1252;-65
2022/06/25 12:04:05;;;;;;;;;;;;;;;;;;2205577;67;1194;-66
2022/06/25 12:06:38;;;;;;;;;;;;;;;;;;2205995;67;1924;-65
2022/06/25 12:09:15;;;;;;;;;;;;;;;;;;2203882;67;1316;-66
2022/06/25 12:11:56;;;;;;;;;;;;;;;;;;2205328;59;1327;-66
2022/06/25 12:14:31;;;;;;;;;;;;;;;;;;2205539;67;1066;-66
2022/06/25 12:17:04;;;;;;;;;;;;;;;;;;2204495;59;1187;-66
2022/06/25 12:19:46;;;;;;;;;;;;;;;;;;2204266;67;1141;-66
2022/06/25 12:22:22;;;;;;;;;;;;;;;;;;2205268;67;1219;-67
2022/06/25 12:25:00;;;;;;;;;;;;;;;;;;2205335;67;1246;-66
2022/06/25 12:27:33;;;;;;;;;;;;;;;;;;2204538;59;1936;-66
2022/06/25 12:30:07;;;;;;;;;;;;;;;;;;2203722;67;1123;-65
2022/06/25 12:32:41;;;;;;;;;;;;;;;;;;2205625;67;1163;-66
2022/06/25 12:35:18;;;;;;;;;;;;;;;;;;2204635;67;1269;-66
2022/06/25 12:38:03;;;;;;;;;;;;;;;;;;2204428;67;1170;-66
2022/06/25 12:40:42;;;;;;;;;;;;;;;;;;2204613;59;2080;-66
2022/06/25 12:43:16;;;;;;;;;;;;;;;;;;2203126;60;1210;-65
2022/06/25 12:45:53;;;;;;;;;;;;;;;;;;2204457;67;1195;-66
2022/06/25 12:48:30;;;;;;;;;;;;;;;;;;2203783;67;1933;-66
2022/06/25 12:51:09;;;;;;;;;;;;;;;;;;2204793;67;1208;-66
2022/06/25 12:53:43;;;;;;;;;;;;;;;;;;2205200;67;1252;-66
2022/06/25 12:56:21;;;;;;;;;;;;;;;;;;2203524;67;1191;-64
2022/06/25 12:58:55;;;;;;;;;;;;;;;;;;2204609;67;1251;-66
2022/06/25 13:01:29;;;;;;;;;;;;;;;;;;2204956;67;1112;-65
2022/06/25 13:04:03;;;;;;;;;;;;;;;;;;2203969;67;1238;-66
2022/06/25 13:06:36;;;;;;;;;;;;;;;;;;2204515;67;1120;-66
2022/06/25 13:09:09;;;;;;;;;;;;;;;;;;2202991;67;1938;-65
2022/06/25 13:11:45;;;;;;;;;;;;;;;;;;2204057;59;1297;-66
2022/06/25 13:14:18;;;;;;;;;;;;;;;;;;2203490;67;1427;-65
2022/06/25 13:16:52;;;;;;;;;;;;;;;;;;2203978;67;1280;-66
2022/06/25 13:19:25;;;;;;;;;;;;;;;;;;2203604;67;1275;-66
2022/06/25 13:21:58;;;;;;;;;;;;;;;;;;2204199;67;1857;-66
2022/06/25 13:24:32;;;;;;;;;;;;;;;;;;2203561;67;1169;-66
2022/06/25 13:27:08;;;;;;;;;;;;;;;;;;2203391;67;1932;-64
2022/06/25 13:29:42;;;;;;;;;;;;;;;;;;2203190;67;1205;-65
2022/06/25 13:32:17;;;;;;;;;;;;;;;;;;2204095;59;2057;-66
2022/06/25 13:34:50;;;;;;;;;;;;;;;;;;2203675;67;1229;-66
2022/06/25 13:37:24;;;;;;;;;;;;;;;;;;2203320;67;1160;-65
2022/06/25 13:39:57;;;;;;;;;;;;;;;;;;2203103;59;1222;-65
2022/06/25 13:42:33;;;;;;;;;;;;;;;;;;2202577;67;2642;-66
2022/06/25 13:45:07;;;;;;;;;;;;;;;;;;2202739;67;1235;-66
2022/06/25 13:47:40;;;;;;;;;;;;;;;;;;2202342;67;2000;-66
2022/06/25 13:50:13;;;;;;;;;;;;;;;;;;2203867;67;1239;-63
2022/06/25 13:52:46;;;;;;;;;;;;;;;;;;2203268;67;1234;-66
2022/06/25 13:55:19;;;;;;;;;;;;;;;;;;2202553;67;1170;-66
2022/06/25 13:57:55;;;;;;;;;;;;;;;;;;2203566;67;1094;-65
2022/06/25 14:00:28;;;;;;;;;;;;;;;;;;2201836;67;1254;-66
2022/06/25 14:03:01;;;;;;;;;;;;;;;;;;2204085;67;1295;-66
2022/06/25 14:05:35;;;;;;;;;;;;;;;;;;2202537;59;1132;-66
2022/06/25 14:08:08;;;;;;;;;;;;;;;;;;2203754;67;1980;-66
2022/06/25 14:10:41;;;;;;;;;;;;;;;;;;2202035;59;1437;-66
2022/06/25 14:13:17;;;;;;;;;;;;;;;;;;2203982;59;1331;-65
2022/06/25 14:15:50;;;;;;;;;;;;;;;;;;2203382;67;1096;-66
2022/06/25 14:18:24;;;;;;;;;;;;;;;;;;2202803;59;1156;-66
2022/06/25 14:20:57;;;;;;;;;;;;;;;;;;2203434;67;1179;-66
2022/06/25 14:23:30;;;;;;;;;;;;;;;;;;2202959;67;1223;-66
2022/06/25 14:26:03;;;;;;;;;;;;;;;;;;2203223;67;1184;-66
2022/06/25 14:28:39;;;;;;;;;;;;;;;;;;2202856;67;1927;-66
2022/06/25 14:31:12;;;;;;;;;;;;;;;;;;2203157;59;1853;-66
2022/06/25 14:33:45;;;;;;;;;;;;;;;;;;2202599;59;1216;-67
2022/06/25 14:44:48;;;;;;;;;;;;;;;;;;2203044;67;1171;-66
2022/06/25 14:47:22;;;;;;;;;;;;;;;;;;2202533;67;1953;-66
2022/06/25 14:49:55;;;;;;;;;;;;;;;;;;2203571;67;1291;-66
2022/06/25 14:52:28;;;;;;;;;;;;;;;;;;2202912;67;1232;-66
2022/06/25 14:55:01;;;;;;;;;;;;;;;;;;2203137;67;1141;-66
2022/06/25 14:57:34;;;;;;;;;;;;;;;;;;2202363;67;1056;-66
2022/06/25 15:00:11;;;;;;;;;;;;;;;;;;2203758;67;1326;-66
2022/06/25 15:02:47;;;;;;;;;;;;;;;;;;2202575;67;1427;-66
2022/06/25 15:05:23;;;;;;;;;;;;;;;;;;2204438;67;1229;-66
2022/06/25 15:07:57;;;;;;;;;;;;;;;;;;2203150;67;1932;-66
2022/06/25 15:10:30;;;;;;;;;;;;;;;;;;2202912;59;1363;-65
2022/06/25 15:13:03;;;;;;;;;;;;;;;;;;2202835;59;1330;-66
2022/06/25 15:15:40;;;;;;;;;;;;;;;;;;2202721;59;1896;-66
2022/06/25 15:18:14;;;;;;;;;;;;;;;;;;2203282;67;1294;-66
2022/06/25 15:20:47;;;;;;;;;;;;;;;;;;2203044;67;1262;-67
2022/06/25 15:23:20;;;;;;;;;;;;;;;;;;2203070;67;1214;-66
2022/06/25 15:25:54;;;;;;;;;;;;;;;;;;2203264;67;1251;-66
2022/06/25 15:28:27;;;;;;;;;;;;;;;;;;2203057;67;1934;-65
2022/06/25 15:31:03;;;;;;;;;;;;;;;;;;2202948;59;1844;-66
2022/06/25 15:33:36;;;;;;;;;;;;;;;;;;2198461;59;1187;-66
2022/06/25 15:36:09;;;;;;;;;;;;;;;;;;2203392;67;1239;-65
2022/06/25 15:38:42;;;;;;;;;;;;;;;;;;2202842;67;1200;-66
2022/06/25 15:41:15;;;;;;;;;;;;;;;;;;2203093;59;2119;-66
2022/06/25 15:43:49;;;;;;;;;;;;;;;;;;2202759;67;1251;-66
2022/06/25 15:46:25;;;;;;;;;;;;;;;;;;2202640;67;1144;-66
2022/06/25 15:48:58;;;;;;;;;;;;;;;;;;2203486;67;1982;-67
2022/06/25 15:51:32;;;;;;;;;;;;;;;;;;2202418;67;1102;-66
2022/06/25 15:54:05;;;;;;;;;;;;;;;;;;2202717;59;1259;-66
2022/06/25 15:56:39;;;;;;;;;;;;;;;;;;2202354;67;1107;-65
2022/06/25 15:59:31;;;;;;;;;;;;;;;;;;2202267;67;1170;-66
2022/06/25 16:02:08;;;;;;;;;;;;;;;;;;2203627;67;1291;-66
2022/06/25 16:04:43;;;;;;;;;;;;;;;;;;2200412;67;1270;-66
2022/06/25 16:07:16;;;;;;;;;;;;;;;;;;2202636;67;1263;-66
2022/06/25 16:09:49;;;;;;;;;;;;;;;;;;2203397;67;1928;-66
2022/06/25 16:12:22;;;;;;;;;;;;;;;;;;2203119;59;1334;-67
2022/06/25 16:14:55;;;;;;;;;;;;;;;;;;2204268;67;1124;-66
2022/06/25 16:17:32;;;;;;;;;;;;;;;;;;2201847;67;1179;-66
2022/06/25 16:20:05;;;;;;;;;;;;;;;;;;2203105;67;1198;-66
2022/06/25 16:22:38;;;;;;;;;;;;;;;;;;2202589;67;1223;-66
2022/06/25 16:25:12;;;;;;;;;;;;;;;;;;2203413;67;1229;-66
2022/06/25 16:27:45;;;;;;;;;;;;;;;;;;2203259;59;1280;-66
2022/06/25 16:30:18;;;;;;;;;;;;;;;;;;2201148;59;1934;-66
2022/06/25 16:32:54;;;;;;;;;;;;;;;;;;2202972;59;1227;-66
2022/06/25 16:35:27;;;;;;;;;;;;;;;;;;2202634;67;1173;-66
2022/06/25 16:38:01;;;;;;;;;;;;;;;;;;2203247;67;1227;-66
2022/06/25 16:40:35;;;;;;;;;;;;;;;;;;2202153;59;2148;-66
2022/06/25 16:43:08;;;;;;;;;;;;;;;;;;2203590;67;1219;-65
2022/06/25 16:45:43;;;;;;;;;;;;;;;;;;2202439;67;1247;-65
2022/06/25 16:48:19;;;;;;;;;;;;;;;;;;2202842;67;1930;-65
2022/06/25 16:50:52;;;;;;;;;;;;;;;;;;2202265;67;1177;-66
2022/06/25 16:53:25;;;;;;;;;;;;;;;;;;2202607;67;1219;-66
2022/06/25 16:55:58;;;;;;;;;;;;;;;;;;2203061;67;1135;-65
2022/06/25 16:58:35;;;;;;;;;;;;;;;;;;2202116;67;1262;-66
2022/06/25 17:01:08;;;;;;;;;;;;;;;;;;2203091;67;1234;-66
2022/06/25 17:03:44;;;;;;;;;;;;;;;;;;2201942;67;1266;-66
2022/06/25 17:06:17;;;;;;;;;;;;;;;;;;2204086;59;1255;-66
2022/06/25 17:08:51;;;;;;;;;;;;;;;;;;2201599;67;1936;-66
2022/06/25 17:11:24;;;;;;;;;;;;;;;;;;2203294;59;1237;-66
2022/06/25 17:13:58;;;;;;;;;;;;;;;;;;2203027;67;1260;-66
2022/06/25 17:16:31;;;;;;;;;;;;;;;;;;2202739;60;1230;-66
2022/06/25 17:19:07;;;;;;;;;;;;;;;;;;2202697;67;1259;-66
2022/06/25 17:21:40;;;;;;;;;;;;;;;;;;2202475;67;1113;-66
2022/06/25 17:24:14;;;;;;;;;;;;;;;;;;2204187;67;1289;-66
2022/06/25 17:26:47;;;;;;;;;;;;;;;;;;2202622;67;1158;-66
2022/06/25 17:29:20;;;;;;;;;;;;;;;;;;2203071;59;1983;-66
2022/06/25 17:31:53;;;;;;;;;;;;;;;;;;2201737;59;2109;-66
2022/06/25 17:34:29;;;;;;;;;;;;;;;;;;2202213;59;1079;-65
2022/06/25 17:37:02;;;;;;;;;;;;;;;;;;2203879;67;1220;-66
2022/06/25 17:39:35;;;;;;;;;;;;;;;;;;2202691;67;1009;-66
2022/06/25 17:42:08;;;;;;;;;;;;;;;;;;2205212;59;2163;-66
2022/06/25 17:44:42;;;;;;;;;;;;;;;;;;2204004;67;1195;-66
2022/06/25 17:47:15;;;;;;;;;;;;;;;;;;2204475;67;1274;-65
2022/06/25 17:49:51;;;;;;;;;;;;;;;;;;2204746;67;1920;-64
2022/06/25 17:52:24;;;;;;;;;;;;;;;;;;2204047;67;1391;-65
2022/06/25 17:54:57;;;;;;;;;;;;;;;;;;2205061;67;1228;-66
2022/06/25 17:57:30;;;;;;;;;;;;;;;;;;2205122;67;1129;-66
2022/06/25 18:00:03;;;;;;;;;;;;;;;;;;2204910;67;1203;-66
2022/06/25 18:02:37;;;;;;;;;;;;;;;;;;2204593;67;1209;-64
2022/06/25 18:05:13;;;;;;;;;;;;;;;;;;2205523;67;1235;-64
2022/06/25 18:07:46;;;;;;;;;;;;;;;;;;2204283;67;1165;-65
2022/06/25 18:10:20;;;;;;;;;;;;;;;;;;2204248;59;1920;-65
2022/06/25 18:12:53;;;;;;;;;;;;;;;;;;2204800;59;1683;-66
2022/06/25 18:15:26;;;;;;;;;;;;;;;;;;2204299;67;1518;-66
2022/06/25 18:17:59;;;;;;;;;;;;;;;;;;2204295;67;1237;-64
2022/06/25 18:20:36;;;;;;;;;;;;;;;;;;2203639;67;1134;-65
2022/06/25 18:23:09;;;;;;;;;;;;;;;;;;2204561;67;1207;-66
2022/06/25 18:25:43;;;;;;;;;;;;;;;;;;2204612;67;1331;-66
2022/06/25 18:28:16;;;;;;;;;;;;;;;;;;2203834;59;1282;-64
2022/06/25 18:30:49;;;;;;;;;;;;;;;;;;2203574;59;2034;-66
2022/06/25 18:33:22;;;;;;;;;;;;;;;;;;2203359;59;1262;-64
2022/06/25 18:35:58;;;;;;;;;;;;;;;;;;2204678;67;1211;-65
2022/06/25 18:38:32;;;;;;;;;;;;;;;;;;2203265;67;1299;-65
2022/06/25 18:41:06;;;;;;;;;;;;;;;;;;2203791;59;2016;-65
2022/06/25 18:43:39;;;;;;;;;;;;;;;;;;2204156;67;1266;-66
2022/06/25 18:46:12;;;;;;;;;;;;;;;;;;2203451;67;1179;-65
2022/06/25 18:48:45;;;;;;;;;;;;;;;;;;2204018;67;1213;-65
2022/06/25 18:51:21;;;;;;;;;;;;;;;;;;2203649;67;1234;-66
2022/06/25 18:53:54;;;;;;;;;;;;;;;;;;2203604;67;1300;-65
2022/06/25 18:56:27;;;;;;;;;;;;;;;;;;2203025;67;1220;-66
2022/06/25 18:59:01;;;;;;;;;;;;;;;;;;2204155;67;1255;-66
2022/06/25 19:01:34;;;;;;;;;;;;;;;;;;2203876;67;1117;-66
2022/06/25 19:04:07;;;;;;;;;;;;;;;;;;2203859;59;1303;-64
2022/06/25 19:06:43;;;;;;;;;;;;;;;;;;2204271;59;1185;-65
2022/06/25 19:09:16;;;;;;;;;;;;;;;;;;2203303;67;1928;-66
2022/06/25 19:11:51;;;;;;;;;;;;;;;;;;2204601;59;1825;-65
2022/06/25 19:14:24;;;;;;;;;;;;;;;;;;2204067;59;1236;-66
2022/06/25 19:16:57;;;;;;;;;;;;;;;;;;2203769;67;1263;-65
2022/06/25 19:19:30;;;;;;;;;;;;;;;;;;2203220;67;1141;-65
2022/06/25 19:22:07;;;;;;;;;;;;;;;;;;2204399;59;1485;-65
2022/06/25 19:24:40;;;;;;;;;;;;;;;;;;2203943;67;1260;-66
2022/06/25 19:27:13;;;;;;;;;;;;;;;;;;2203702;67;1231;-64
2022/06/25 19:29:46;;;;;;;;;;;;;;;;;;2203327;67;1995;-65
2022/06/25 19:32:19;;;;;;;;;;;;;;;;;;2203399;59;2004;-66
2022/06/25 19:34:53;;;;;;;;;;;;;;;;;;2203771;67;1222;-66